• Join FlightAware (Why Join?)
  • Login
  • US Flag 
09:13AM EDT


 

Airport Tracker/Info


-or-


 

Live Flight TrackerFlight Track Log ✈ SKQ45 ✈ 28-Jan-2014 ✈ KPAH - KSTL

Flight Track Log - Related Links

Times and Time Zones

All times are in EST time to prevent confusion due to time zone crossing. See the SKQ45 flight status page for this flight to view local times or setup timezone preferences in your user account.

Time Position Orientation Groundspeed Altitude Reporting Facility
EST Latitude Longitude Course Direction KTS MPH feet Rate Location/Type
11:04PM 37.1241 -88.8292 325° Northwest  Level FlightAware Approximate
11:06PM 37.2047 -88.8708 325° Northwest 168 193 10,100  Level Memphis Center
11:07PM 37.2508 -88.9144 323° Northwest 200 230 10,100 -60 Level Memphis Center
11:08PM 37.2989 -88.9589 324° Northwest 212 244 10,000  Descending Memphis Center
11:10PM 37.3472 -89.0056 322° Northwest 217 250 10,100  Climbing Memphis Center
11:11PM 37.3715 -89.0634 325° Northwest  Level FlightAware Approximate
11:11PM 37.3964 -89.0519 323° Northwest 220 253 10,100  Level Memphis Center
11:12PM 37.4089 -89.0968 325° Northwest  Level FlightAware Approximate
11:12PM 37.4464 -89.0986 323° Northwest 222 255 10,100  Level Memphis Center
11:13PM 37.4942 -89.1458 322° Northwest 219 252 9,900 -60 Descending Memphis Center
11:14PM 37.5436 -89.1925 323° Northwest 220 253 10,000  Climbing Memphis Center
11:15PM 37.5917 -89.2392 322° Northwest 220 253 10,000 -60 Level Memphis Center
11:16PM 37.6400 -89.2850 323° Northwest 219 252 9,900  Descending Memphis Center
11:17PM 37.6883 -89.3317 323° Northwest 218 251 10,000  Climbing Memphis Center
11:18PM 37.7367 -89.3789 322° Northwest 219 252 10,000 -60 Level Memphis Center
11:19PM 37.7844 -89.4242 323° Northwest 217 250 9,900 -60 Descending Memphis Center
11:20PM 37.8414 -89.4800 322° Northwest 216 249 9,900  Level Memphis Center
11:21PM 37.8900 -89.5256 324° Northwest 217 250 10,000  Climbing Memphis Center
11:22PM 37.9364 -89.5719 322° Northwest 215 247 9,900 -60 Descending Memphis Center
11:23PM 37.9836 -89.6167 323° Northwest 213 245 9,900  Level Memphis Center
11:24PM 38.0308 -89.6631 322° Northwest 213 245 9,900 60 Level Memphis Center
11:25PM 38.0817 -89.7136 322° Northwest 212 244 10,100  Climbing Kansas City Center
11:26PM 38.1236 -89.7533 323° Northwest 215 247 10,000 -420 Descending Kansas City Center
11:27PM 38.1731 -89.8008 323° Northwest 220 253 9,300 -960 Descending Kansas City Center
11:28PM 38.2272 -89.8464 327° Northwest 231 266 8,100 -1,200 Descending Kansas City Center
11:29PM 38.2800 -89.8917 326° Northwest 231 266 6,900 -1,260 Descending Kansas City Center
11:30PM 38.3333 -89.9369 326° Northwest 231 266 5,700 -1,020 Descending Kansas City Center
11:31PM 38.3867 -89.9850 325° Northwest 211 243 4,900 -360 Descending Kansas City Center
11:32PM 38.4297 -90.0228 326° Northwest 196 226 5,000  Climbing Kansas City Center
11:33PM 38.4753 -90.0628 325° Northwest 196 226 4,900 -540 Descending Kansas City Center
11:34PM 38.5228 -90.1039 326° Northwest 201 231 4,000 -480 Descending Kansas City Center
11:35PM 38.5694 -90.1453 325° Northwest 204 235 4,000 -60 Level Kansas City Center
11:36PM 38.6078 -90.1778 326° Northwest 185 213 3,900 -540 Descending Kansas City Center
11:37PM 38.6442 -90.2081 327° Northwest 168 193 3,000 -840 Descending Kansas City Center
11:38PM 38.6825 -90.2394 327° Northwest 165 190 2,300 -600 Descending Kansas City Center
11:39PM 38.7072 -90.2767 310° West 156 180 1,900 -540 Descending Kansas City Center
11:40PM 38.7250 -90.3111 303° West 133 153 1,300 -660 Descending Kansas City Center
11:41PM 38.7394 -90.3417 301° West 116 133 600 -720 Descending Kansas City Center